Hyattsville, Maryland
Current Conditions -  °F | °C
As of 1:05 PM on Tuesday 21 Oct 2014 (Local Time) from KCGS Reporting Station
Clear Clear  
Wind Chill: 68°   Ceiling: Unl
Heat Index: 68°   Visibility: 10mi
Dew Point: 48°   Wind: 5mph
Humidity: 49%   Direction: 330°NNW
Pressure: 29.83"   Gusts: NA
Location:  38.95°N, 76.94°W
Report Text: KCGS 211705Z AUTO 33004KT 10SM CLR 20/09 A2983 RMK AO1
Loading
Personal Weather Stations






























Interactive Weather Map
Tropical Storm Tracking
New forecast layout! Learn more

10-Day Weather Forecast

Advertisements
Track Severe Weather on mobile